Главная страница
METAR-TAF:

METAR-TAF

Аэропорты :

Morristown, Нью-Джерси, США

широта: 40-48N, долгота: 074-25W, высота над уровнем моря: 57 м

Текущие метеонаблюдения

Эта сводка был подготовлена 28 минут назад, в 11:58 UTC
Штиль
Температура 12°C
Влажность 100%
Давление 1016 hPa
Видимость: 16.1 км
Сплошная облачность на высоте 25000 фута

METAR: KMMU 241158Z 00000KT 10SM OVC250 12/12 A3000

Время: 08:26 (12:26 UTC)


TAF: отсутствует

Метеонаблюдения и прогнозы для более 4000 аэропортов (сводки METAR и TAF).

Имеющиеся станции представлены на карте желтыми и красными точками.

Чтобы увидеть название станции, наведите на нее мышь.

Затем щелкните, чтобы увидеть метеонаблюдения и метеопрогнозы.

Управление картой: чтобы увеличить масштаб, щелкните зеленые кнопки с черным крестиком; чтобы уменьшить масштаб, щелкните зеленую кнопку с тире; для просмотра соседних карт щелкайте зеленые стрелки.


METAR-TAF: